Kodiak, AK

10:26 AM AKST on February 21, 2017 (GMT -0900)
MKDAA2 | | Change Station

Elev 0 ft 57.73 °N, 152.51 °W | Updated 1 hour ago

Mostly Cloudy
Mostly Cloudy
17.0 °F
Feels Like 17.0 °F
N
3.0
Wind Variable Wind from South
Gusts 5.0 mph

Today
High -- | Low -- °F
--% Chance of Precip.
Yesterday
High -- | Low -- °F
Precip. -- in
Pressure 30.09 in
Visibility 10.0 miles
Clouds Few 2500 ft
Mostly Cloudy 3600 ft
Dew Point Not available.
Humidity Not available.
Rainfall in
Snow Depth Not available.
8:23 AM 6:24 PM
Waning Crescent, 23% visible
METAR PADQ 211853Z 26004KT 10SM FEW025 BKN036 M08/M14 A3008 RMK AO2 SLP187 T10781139
Pressure 30.09 in
Visibility 10.0 miles
Clouds Few 2500 ft
Mostly Cloudy 3600 ft
Dew Point Not available.
Humidity Not available.
Rainfall in
Snow Depth Not available.
8:23 AM 6:24 PM
Waning Crescent, 23% visible
METAR PADQ 211853Z 26004KT 10SM FEW025 BKN036 M08/M14 A3008 RMK AO2 SLP187 T10781139

Get Your Daily Forecast Email!

Thanks for signing up!

Be on the lookout for a verification email in your inbox.

You'll start receiving the daily forecast at 8 AM.

×

10-Day Weather Forecast

Almanac

Astronomy

Feb. 21, 2017 Rise Set
Actual Time
Civil Twilight
Nautical Twilight
Astronomical Twilight
Moon
Length of Visible Light
Length of Day
Tomorrow will be .
, % of the Moon is Illuminated

Today's Extremes

State Highs State Lows

Community

WunderPhotos

Upload Photos

1,962,540 photos uploaded!

WunderBlog® & News

Nearby

Air Quality

  Air Quality AQ Index Pollutant
Not available.

Snow Depth

Station Depth Elevation

Earthquake Activity

City Distance Mag. Time & Date
Minimum magnitude displayed is 2.5.

Coastal Water Temperatures

Place Temperature

Stations

Nearby Weather Stations

Station Location Temp. Windchill Dew Point Humidity Wind Precip. Elev Updated Type
                   

Watches & Warnings

There are currently no watches in effect.